LFKC 170830Z AUTO VRB02KT CAVOK 12/08 Q1027 NOSIG

ElémentsDécodage
LFKC Station météo située sur l'aérodrome de CALVI Sainte-Catherine
170830Z émis le 17 du mois à 08h30 UTC
AUTO Bulletin édité par un automate
VRB02KT vent de direction variable, 02 noeuds
CAVOK Ceiling And Visibility OK
- Visibilité de 10 Km ou plus
- Pas de nuage au-dessous de 1500m ou au-dessous de l'altitude minimale du secteur la plus élevée (si>1500m) et absence de CB
- pas de temps présent significatif
12/08 température 12°C, point de rosée 08°C
 soit une humidité relative de 77%
Q1027 la pression au niveau de la mer (QNH) est de 1027 hPa
NOSIG Pas de changement significatif prévu au cours des deux heures suivant l'heure de l'observation